sensor_id;sensor_type;location;lat;lon;timestamp;temperature;humidity
23267;DHT22;11802;53.160;8.214;2022-07-12T00:01:58;16.20;99.90
23267;DHT22;11802;53.160;8.214;2022-07-12T00:04:23;16.20;99.90
23267;DHT22;11802;53.160;8.214;2022-07-12T00:06:49;16.20;99.90
23267;DHT22;11802;53.160;8.214;2022-07-12T00:09:15;16.20;99.90
23267;DHT22;11802;53.160;8.214;2022-07-12T00:11:40;16.20;99.90
23267;DHT22;11802;53.160;8.214;2022-07-12T00:14:07;16.10;99.90
23267;DHT22;11802;53.160;8.214;2022-07-12T00:16:32;16.20;99.90
23267;DHT22;11802;53.160;8.214;2022-07-12T00:18:58;16.10;99.90
23267;DHT22;11802;53.160;8.214;2022-07-12T00:21:24;16.20;99.90
23267;DHT22;11802;53.160;8.214;2022-07-12T00:23:50;16.20;99.90
23267;DHT22;11802;53.160;8.214;2022-07-12T00:26:15;16.20;99.90
23267;DHT22;11802;53.160;8.214;2022-07-12T00:28:41;16.20;99.90
23267;DHT22;11802;53.160;8.214;2022-07-12T00:31:07;16.20;99.90
23267;DHT22;11802;53.160;8.214;2022-07-12T00:33:32;16.20;99.90
23267;DHT22;11802;53.160;8.214;2022-07-12T00:35:58;16.20;99.90
23267;DHT22;11802;53.160;8.214;2022-07-12T00:38:23;16.10;99.90
23267;DHT22;11802;53.160;8.214;2022-07-12T00:40:49;16.10;99.90
23267;DHT22;11802;53.160;8.214;2022-07-12T00:43:17;16.10;99.90
23267;DHT22;11802;53.160;8.214;2022-07-12T00:45:43;16.10;99.90
23267;DHT22;11802;53.160;8.214;2022-07-12T00:48:09;16.10;99.90
23267;DHT22;11802;53.160;8.214;2022-07-12T00:50:35;16.00;99.90
23267;DHT22;11802;53.160;8.214;2022-07-12T00:53:02;16.00;99.90
23267;DHT22;11802;53.160;8.214;2022-07-12T00:55:27;16.00;99.90
23267;DHT22;11802;53.160;8.214;2022-07-12T00:57:53;16.10;99.90
23267;DHT22;11802;53.160;8.214;2022-07-12T01:00:23;16.10;99.90
23267;DHT22;11802;53.160;8.214;2022-07-12T01:02:50;16.10;99.90
23267;DHT22;11802;53.160;8.214;2022-07-12T01:05:17;16.10;99.90
23267;DHT22;11802;53.160;8.214;2022-07-12T01:07:43;16.10;99.90
23267;DHT22;11802;53.160;8.214;2022-07-12T01:10:10;16.10;99.90
23267;DHT22;11802;53.160;8.214;2022-07-12T01:12:35;16.10;99.90
23267;DHT22;11802;53.160;8.214;2022-07-12T01:15:08;16.10;99.90
23267;DHT22;11802;53.160;8.214;2022-07-12T01:17:34;16.00;99.90
23267;DHT22;11802;53.160;8.214;2022-07-12T01:20:00;16.00;99.90
23267;DHT22;11802;53.160;8.214;2022-07-12T01:22:35;16.00;99.90
23267;DHT22;11802;53.160;8.214;2022-07-12T01:25:08;16.00;99.90
23267;DHT22;11802;53.160;8.214;2022-07-12T01:27:34;16.00;99.90
23267;DHT22;11802;53.160;8.214;2022-07-12T01:30:05;16.00;99.90
23267;DHT22;11802;53.160;8.214;2022-07-12T01:32:31;16.00;99.90
23267;DHT22;11802;53.160;8.214;2022-07-12T01:34:59;16.00;99.90
23267;DHT22;11802;53.160;8.214;2022-07-12T01:37:33;16.00;99.90
23267;DHT22;11802;53.160;8.214;2022-07-12T01:40:00;16.00;99.90
23267;DHT22;11802;53.160;8.214;2022-07-12T01:42:27;16.00;99.90
23267;DHT22;11802;53.160;8.214;2022-07-12T01:44:53;16.00;99.90
23267;DHT22;11802;53.160;8.214;2022-07-12T01:47:20;16.00;99.90
23267;DHT22;11802;53.160;8.214;2022-07-12T01:49:46;16.00;99.90
23267;DHT22;11802;53.160;8.214;2022-07-12T01:52:13;16.00;99.90
23267;DHT22;11802;53.160;8.214;2022-07-12T01:54:40;16.00;99.90
23267;DHT22;11802;53.160;8.214;2022-07-12T01:57:06;15.90;99.90
23267;DHT22;11802;53.160;8.214;2022-07-12T01:59:32;16.00;99.90
23267;DHT22;11802;53.160;8.214;2022-07-12T02:01:58;16.00;99.90
23267;DHT22;11802;53.160;8.214;2022-07-12T02:04:24;16.00;99.90
23267;DHT22;11802;53.160;8.214;2022-07-12T02:06:50;16.00;99.90
23267;DHT22;11802;53.160;8.214;2022-07-12T02:09:17;15.90;99.90
23267;DHT22;11802;53.160;8.214;2022-07-12T02:11:44;16.00;99.90
23267;DHT22;11802;53.160;8.214;2022-07-12T02:14:10;15.90;99.90
23267;DHT22;11802;53.160;8.214;2022-07-12T02:16:38;15.90;99.90
23267;DHT22;11802;53.160;8.214;2022-07-12T02:19:03;15.90;99.90
23267;DHT22;11802;53.160;8.214;2022-07-12T02:21:29;15.90;99.90
23267;DHT22;11802;53.160;8.214;2022-07-12T02:23:55;15.90;99.90
23267;DHT22;11802;53.160;8.214;2022-07-12T02:26:20;15.90;99.90
23267;DHT22;11802;53.160;8.214;2022-07-12T02:28:46;15.90;99.90
23267;DHT22;11802;53.160;8.214;2022-07-12T02:31:11;15.90;99.90
23267;DHT22;11802;53.160;8.214;2022-07-12T02:33:37;15.90;99.90
23267;DHT22;11802;53.160;8.214;2022-07-12T02:36:03;15.90;99.90
23267;DHT22;11802;53.160;8.214;2022-07-12T02:38:28;15.90;99.90
23267;DHT22;11802;53.160;8.214;2022-07-12T02:40:54;15.90;99.90
23267;DHT22;11802;53.160;8.214;2022-07-12T02:43:27;15.90;99.90
23267;DHT22;11802;53.160;8.214;2022-07-12T02:46:03;15.90;99.90
23267;DHT22;11802;53.160;8.214;2022-07-12T02:48:30;16.00;99.90
23267;DHT22;11802;53.160;8.214;2022-07-12T02:50:55;16.00;99.90
23267;DHT22;11802;53.160;8.214;2022-07-12T02:53:21;15.90;99.90
23267;DHT22;11802;53.160;8.214;2022-07-12T02:55:46;15.90;99.90
23267;DHT22;11802;53.160;8.214;2022-07-12T02:58:12;15.90;99.90
23267;DHT22;11802;53.160;8.214;2022-07-12T03:00:38;15.90;99.90
23267;DHT22;11802;53.160;8.214;2022-07-12T03:03:04;15.90;99.90
23267;DHT22;11802;53.160;8.214;2022-07-12T03:05:30;15.90;99.90
23267;DHT22;11802;53.160;8.214;2022-07-12T03:07:55;15.90;99.90
23267;DHT22;11802;53.160;8.214;2022-07-12T03:10:21;16.00;99.90
23267;DHT22;11802;53.160;8.214;2022-07-12T03:12:46;15.90;99.90
23267;DHT22;11802;53.160;8.214;2022-07-12T03:15:12;15.90;99.90
23267;DHT22;11802;53.160;8.214;2022-07-12T03:17:37;15.90;99.90
23267;DHT22;11802;53.160;8.214;2022-07-12T03:20:04;15.90;99.90
23267;DHT22;11802;53.160;8.214;2022-07-12T03:22:37;15.90;99.90
23267;DHT22;11802;53.160;8.214;2022-07-12T03:25:03;15.80;99.90
23267;DHT22;11802;53.160;8.214;2022-07-12T03:27:29;15.80;99.90
23267;DHT22;11802;53.160;8.214;2022-07-12T03:29:56;15.80;99.90
23267;DHT22;11802;53.160;8.214;2022-07-12T03:32:23;15.80;99.90
23267;DHT22;11802;53.160;8.214;2022-07-12T03:34:48;15.80;99.90
23267;DHT22;11802;53.160;8.214;2022-07-12T03:37:14;15.80;99.90
23267;DHT22;11802;53.160;8.214;2022-07-12T03:39:39;15.90;99.90
23267;DHT22;11802;53.160;8.214;2022-07-12T03:42:04;15.80;99.90
23267;DHT22;11802;53.160;8.214;2022-07-12T03:44:30;15.90;99.90
23267;DHT22;11802;53.160;8.214;2022-07-12T03:46:56;15.90;99.90
23267;DHT22;11802;53.160;8.214;2022-07-12T03:49:21;15.90;99.90
23267;DHT22;11802;53.160;8.214;2022-07-12T03:51:47;15.90;99.90
23267;DHT22;11802;53.160;8.214;2022-07-12T03:54:12;15.90;99.90
23267;DHT22;11802;53.160;8.214;2022-07-12T03:56:38;16.00;99.90
23267;DHT22;11802;53.160;8.214;2022-07-12T03:59:22;16.00;99.90
23267;DHT22;11802;53.160;8.214;2022-07-12T04:01:48;15.90;99.90
23267;DHT22;11802;53.160;8.214;2022-07-12T04:04:14;15.90;99.90
23267;DHT22;11802;53.160;8.214;2022-07-12T04:06:40;15.90;99.90
23267;DHT22;11802;53.160;8.214;2022-07-12T04:09:06;15.90;99.90
23267;DHT22;11802;53.160;8.214;2022-07-12T04:11:32;16.00;99.90
23267;DHT22;11802;53.160;8.214;2022-07-12T04:13:57;16.00;99.90
23267;DHT22;11802;53.160;8.214;2022-07-12T04:16:23;16.00;99.90
23267;DHT22;11802;53.160;8.214;2022-07-12T04:18:49;16.00;99.90
23267;DHT22;11802;53.160;8.214;2022-07-12T04:21:15;16.00;99.90
23267;DHT22;11802;53.160;8.214;2022-07-12T04:23:40;15.90;99.90
23267;DHT22;11802;53.160;8.214;2022-07-12T04:26:06;15.80;99.90
23267;DHT22;11802;53.160;8.214;2022-07-12T04:28:31;15.90;99.90
23267;DHT22;11802;53.160;8.214;2022-07-12T04:30:57;16.00;99.90
23267;DHT22;11802;53.160;8.214;2022-07-12T04:33:22;16.00;99.90
23267;DHT22;11802;53.160;8.214;2022-07-12T04:35:48;16.10;99.90
23267;DHT22;11802;53.160;8.214;2022-07-12T04:38:13;16.10;99.90
23267;DHT22;11802;53.160;8.214;2022-07-12T04:40:39;16.10;99.90
23267;DHT22;11802;53.160;8.214;2022-07-12T04:43:05;16.20;99.90
23267;DHT22;11802;53.160;8.214;2022-07-12T04:45:31;16.10;99.90
23267;DHT22;11802;53.160;8.214;2022-07-12T04:47:56;16.20;99.90
23267;DHT22;11802;53.160;8.214;2022-07-12T04:50:22;16.20;99.90
23267;DHT22;11802;53.160;8.214;2022-07-12T04:52:47;16.30;99.90
23267;DHT22;11802;53.160;8.214;2022-07-12T04:55:13;16.30;99.90
23267;DHT22;11802;53.160;8.214;2022-07-12T04:57:39;16.30;99.90
23267;DHT22;11802;53.160;8.214;2022-07-12T05:00:05;16.40;99.90
23267;DHT22;11802;53.160;8.214;2022-07-12T05:02:32;16.50;99.90
23267;DHT22;11802;53.160;8.214;2022-07-12T05:04:58;16.50;99.90
23267;DHT22;11802;53.160;8.214;2022-07-12T05:07:23;16.50;99.90
23267;DHT22;11802;53.160;8.214;2022-07-12T05:09:49;16.30;99.90
23267;DHT22;11802;53.160;8.214;2022-07-12T05:12:14;16.50;99.90
23267;DHT22;11802;53.160;8.214;2022-07-12T05:14:40;16.60;99.90
23267;DHT22;11802;53.160;8.214;2022-07-12T05:17:05;16.80;99.90
23267;DHT22;11802;53.160;8.214;2022-07-12T05:19:31;16.90;99.90
23267;DHT22;11802;53.160;8.214;2022-07-12T05:21:56;17.00;99.90
23267;DHT22;11802;53.160;8.214;2022-07-12T05:24:22;17.00;99.90
23267;DHT22;11802;53.160;8.214;2022-07-12T05:26:47;17.10;99.90
23267;DHT22;11802;53.160;8.214;2022-07-12T05:29:13;17.10;99.90
23267;DHT22;11802;53.160;8.214;2022-07-12T05:31:39;17.30;99.90
23267;DHT22;11802;53.160;8.214;2022-07-12T05:34:05;17.40;99.90
23267;DHT22;11802;53.160;8.214;2022-07-12T05:36:30;17.40;99.90
23267;DHT22;11802;53.160;8.214;2022-07-12T05:38:56;17.40;99.90
23267;DHT22;11802;53.160;8.214;2022-07-12T05:41:21;17.40;99.90
23267;DHT22;11802;53.160;8.214;2022-07-12T05:43:47;17.50;99.90
23267;DHT22;11802;53.160;8.214;2022-07-12T05:46:12;17.50;99.90
23267;DHT22;11802;53.160;8.214;2022-07-12T05:48:38;17.50;99.90
23267;DHT22;11802;53.160;8.214;2022-07-12T05:51:04;17.60;99.90
23267;DHT22;11802;53.160;8.214;2022-07-12T05:53:48;17.70;99.90
23267;DHT22;11802;53.160;8.214;2022-07-12T05:56:14;17.90;99.90
23267;DHT22;11802;53.160;8.214;2022-07-12T05:58:40;18.10;99.90
23267;DHT22;11802;53.160;8.214;2022-07-12T06:01:06;18.10;99.90
23267;DHT22;11802;53.160;8.214;2022-07-12T06:03:32;18.20;99.90
23267;DHT22;11802;53.160;8.214;2022-07-12T06:05:57;18.30;99.90
23267;DHT22;11802;53.160;8.214;2022-07-12T06:08:23;18.50;99.90
23267;DHT22;11802;53.160;8.214;2022-07-12T06:10:48;18.70;99.90
23267;DHT22;11802;53.160;8.214;2022-07-12T06:13:14;18.80;99.90
23267;DHT22;11802;53.160;8.214;2022-07-12T06:15:39;18.90;99.90
23267;DHT22;11802;53.160;8.214;2022-07-12T06:18:05;19.10;99.90
23267;DHT22;11802;53.160;8.214;2022-07-12T06:20:31;19.20;99.90
23267;DHT22;11802;53.160;8.214;2022-07-12T06:22:57;19.60;99.90
23267;DHT22;11802;53.160;8.214;2022-07-12T06:25:23;19.90;99.90
23267;DHT22;11802;53.160;8.214;2022-07-12T06:27:49;20.00;99.90
23267;DHT22;11802;53.160;8.214;2022-07-12T06:30:18;20.20;99.90
23267;DHT22;11802;53.160;8.214;2022-07-12T06:32:45;20.30;99.90
23267;DHT22;11802;53.160;8.214;2022-07-12T06:35:12;20.40;99.90
23267;DHT22;11802;53.160;8.214;2022-07-12T06:37:38;20.40;99.90
23267;DHT22;11802;53.160;8.214;2022-07-12T06:40:04;20.50;99.90
23267;DHT22;11802;53.160;8.214;2022-07-12T06:42:30;20.50;99.90
23267;DHT22;11802;53.160;8.214;2022-07-12T06:44:55;21.00;99.90
23267;DHT22;11802;53.160;8.214;2022-07-12T06:47:21;21.80;99.90
23267;DHT22;11802;53.160;8.214;2022-07-12T06:49:47;22.40;99.90
23267;DHT22;11802;53.160;8.214;2022-07-12T06:52:12;22.20;99.90
23267;DHT22;11802;53.160;8.214;2022-07-12T06:54:38;22.70;99.90
23267;DHT22;11802;53.160;8.214;2022-07-12T06:57:04;23.20;99.90
23267;DHT22;11802;53.160;8.214;2022-07-12T06:59:29;23.50;99.90
23267;DHT22;11802;53.160;8.214;2022-07-12T07:01:55;23.90;99.90
23267;DHT22;11802;53.160;8.214;2022-07-12T07:04:23;24.10;99.90
23267;DHT22;11802;53.160;8.214;2022-07-12T07:06:49;24.30;99.90
23267;DHT22;11802;53.160;8.214;2022-07-12T07:09:14;24.70;99.90
23267;DHT22;11802;53.160;8.214;2022-07-12T07:11:40;24.90;99.90
23267;DHT22;11802;53.160;8.214;2022-07-12T07:14:06;25.20;99.90
23267;DHT22;11802;53.160;8.214;2022-07-12T07:16:32;25.20;99.90
23267;DHT22;11802;53.160;8.214;2022-07-12T07:18:57;25.70;99.90
23267;DHT22;11802;53.160;8.214;2022-07-12T07:21:23;25.90;99.90
23267;DHT22;11802;53.160;8.214;2022-07-12T07:23:50;25.80;99.90
23267;DHT22;11802;53.160;8.214;2022-07-12T07:26:15;25.50;99.90
23267;DHT22;11802;53.160;8.214;2022-07-12T07:28:41;25.50;99.90
23267;DHT22;11802;53.160;8.214;2022-07-12T07:31:25;25.80;99.90
23267;DHT22;11802;53.160;8.214;2022-07-12T07:33:50;25.90;99.90
23267;DHT22;11802;53.160;8.214;2022-07-12T07:36:16;26.20;99.90
23267;DHT22;11802;53.160;8.214;2022-07-12T07:38:41;26.50;99.90
23267;DHT22;11802;53.160;8.214;2022-07-12T07:41:07;26.70;99.90
23267;DHT22;11802;53.160;8.214;2022-07-12T07:43:32;26.60;99.90
23267;DHT22;11802;53.160;8.214;2022-07-12T07:45:59;27.10;99.90
23267;DHT22;11802;53.160;8.214;2022-07-12T07:48:24;27.80;99.90
23267;DHT22;11802;53.160;8.214;2022-07-12T07:50:50;28.30;99.90
23267;DHT22;11802;53.160;8.214;2022-07-12T07:53:15;28.40;99.90
23267;DHT22;11802;53.160;8.214;2022-07-12T07:55:41;28.80;99.90
23267;DHT22;11802;53.160;8.214;2022-07-12T07:58:07;28.60;99.90
23267;DHT22;11802;53.160;8.214;2022-07-12T08:00:32;28.60;99.90
23267;DHT22;11802;53.160;8.214;2022-07-12T08:02:58;28.90;99.90
23267;DHT22;11802;53.160;8.214;2022-07-12T08:05:24;29.30;99.90
23267;DHT22;11802;53.160;8.214;2022-07-12T08:07:50;29.80;99.90
23267;DHT22;11802;53.160;8.214;2022-07-12T08:10:15;29.30;99.90
23267;DHT22;11802;53.160;8.214;2022-07-12T08:12:41;29.70;99.90
23267;DHT22;11802;53.160;8.214;2022-07-12T08:15:07;29.90;99.90
23267;DHT22;11802;53.160;8.214;2022-07-12T08:17:33;30.40;99.90
23267;DHT22;11802;53.160;8.214;2022-07-12T08:19:58;30.50;99.90
23267;DHT22;11802;53.160;8.214;2022-07-12T08:22:24;30.30;99.90
23267;DHT22;11802;53.160;8.214;2022-07-12T08:24:49;31.50;99.90
23267;DHT22;11802;53.160;8.214;2022-07-12T08:27:15;31.70;99.90
23267;DHT22;11802;53.160;8.214;2022-07-12T08:29:41;31.50;99.90
23267;DHT22;11802;53.160;8.214;2022-07-12T08:32:07;30.70;99.90
23267;DHT22;11802;53.160;8.214;2022-07-12T08:34:33;30.20;99.90
23267;DHT22;11802;53.160;8.214;2022-07-12T08:36:59;31.10;99.90
23267;DHT22;11802;53.160;8.214;2022-07-12T08:39:25;31.80;99.90
23267;DHT22;11802;53.160;8.214;2022-07-12T08:41:51;32.10;99.90
23267;DHT22;11802;53.160;8.214;2022-07-12T08:44:16;32.50;99.90
23267;DHT22;11802;53.160;8.214;2022-07-12T08:46:42;33.10;99.90
23267;DHT22;11802;53.160;8.214;2022-07-12T08:49:07;33.80;99.90
23267;DHT22;11802;53.160;8.214;2022-07-12T08:51:33;33.90;99.90
23267;DHT22;11802;53.160;8.214;2022-07-12T08:54:06;33.90;99.90
23267;DHT22;11802;53.160;8.214;2022-07-12T08:56:34;34.30;99.90
23267;DHT22;11802;53.160;8.214;2022-07-12T08:59:19;34.80;99.90
23267;DHT22;11802;53.160;8.214;2022-07-12T09:01:48;34.80;99.90
23267;DHT22;11802;53.160;8.214;2022-07-12T09:04:17;34.80;99.90
23267;DHT22;11802;53.160;8.214;2022-07-12T09:06:43;34.90;99.90
23267;DHT22;11802;53.160;8.214;2022-07-12T09:09:09;35.40;99.90
23267;DHT22;11802;53.160;8.214;2022-07-12T09:11:37;35.60;99.90
23267;DHT22;11802;53.160;8.214;2022-07-12T09:14:03;35.70;99.00
23267;DHT22;11802;53.160;8.214;2022-07-12T09:16:29;35.30;99.80
23267;DHT22;11802;53.160;8.214;2022-07-12T09:19:17;34.70;99.90
23267;DHT22;11802;53.160;8.214;2022-07-12T09:21:47;34.90;99.90
23267;DHT22;11802;53.160;8.214;2022-07-12T09:24:13;34.80;99.50
23267;DHT22;11802;53.160;8.214;2022-07-12T09:26:38;33.80;99.70
23267;DHT22;11802;53.160;8.214;2022-07-12T09:29:08;33.80;99.90
23267;DHT22;11802;53.160;8.214;2022-07-12T09:31:45;34.40;99.90
23267;DHT22;11802;53.160;8.214;2022-07-12T09:34:30;34.60;99.90
23267;DHT22;11802;53.160;8.214;2022-07-12T09:37:15;34.70;99.40
23267;DHT22;11802;53.160;8.214;2022-07-12T09:39:41;35.20;98.90
23267;DHT22;11802;53.160;8.214;2022-07-12T09:42:11;35.20;98.70
23267;DHT22;11802;53.160;8.214;2022-07-12T09:44:38;34.80;98.40
23267;DHT22;11802;53.160;8.214;2022-07-12T09:47:04;34.90;97.90
23267;DHT22;11802;53.160;8.214;2022-07-12T09:49:33;34.30;97.70
23267;DHT22;11802;53.160;8.214;2022-07-12T09:51:59;33.70;99.10
23267;DHT22;11802;53.160;8.214;2022-07-12T09:54:27;34.10;99.30
23267;DHT22;11802;53.160;8.214;2022-07-12T09:56:54;34.30;98.40
23267;DHT22;11802;53.160;8.214;2022-07-12T09:59:23;34.00;98.10
23267;DHT22;11802;53.160;8.214;2022-07-12T10:01:50;34.30;98.60
23267;DHT22;11802;53.160;8.214;2022-07-12T10:04:20;34.00;97.70
23267;DHT22;11802;53.160;8.214;2022-07-12T10:06:47;33.90;98.40
23267;DHT22;11802;53.160;8.214;2022-07-12T10:09:13;33.90;97.80
23267;DHT22;11802;53.160;8.214;2022-07-12T10:11:40;33.70;98.00
23267;DHT22;11802;53.160;8.214;2022-07-12T10:14:12;34.20;98.00
23267;DHT22;11802;53.160;8.214;2022-07-12T10:16:42;34.30;98.20
23267;DHT22;11802;53.160;8.214;2022-07-12T10:19:28;34.10;98.10
23267;DHT22;11802;53.160;8.214;2022-07-12T10:21:56;34.10;98.00
23267;DHT22;11802;53.160;8.214;2022-07-12T10:29:41;33.40;98.20
23267;DHT22;11802;53.160;8.214;2022-07-12T10:32:24;33.40;98.40
23267;DHT22;11802;53.160;8.214;2022-07-12T10:35:05;34.00;97.40
23267;DHT22;11802;53.160;8.214;2022-07-12T10:37:31;34.20;96.90
23267;DHT22;11802;53.160;8.214;2022-07-12T10:42:39;33.90;96.30
23267;DHT22;11802;53.160;8.214;2022-07-12T10:45:13;33.70;96.00
23267;DHT22;11802;53.160;8.214;2022-07-12T10:48:01;33.80;96.30
23267;DHT22;11802;53.160;8.214;2022-07-12T10:58:30;33.10;97.60
23267;DHT22;11802;53.160;8.214;2022-07-12T11:00:56;32.60;98.80
23267;DHT22;11802;53.160;8.214;2022-07-12T11:03:22;32.40;99.20
23267;DHT22;11802;53.160;8.214;2022-07-12T11:05:48;32.20;99.20
23267;DHT22;11802;53.160;8.214;2022-07-12T11:08:15;32.30;99.10
23267;DHT22;11802;53.160;8.214;2022-07-12T11:10:54;32.20;99.40
23267;DHT22;11802;53.160;8.214;2022-07-12T11:13:20;32.30;99.90
23267;DHT22;11802;53.160;8.214;2022-07-12T11:15:59;32.20;99.90
23267;DHT22;11802;53.160;8.214;2022-07-12T11:18:33;32.40;99.90
23267;DHT22;11802;53.160;8.214;2022-07-12T11:21:00;32.40;99.80
23267;DHT22;11802;53.160;8.214;2022-07-12T11:23:28;31.40;99.90
23267;DHT22;11802;53.160;8.214;2022-07-12T11:25:58;32.30;99.90
23267;DHT22;11802;53.160;8.214;2022-07-12T11:28:25;33.00;99.90
23267;DHT22;11802;53.160;8.214;2022-07-12T11:30:51;33.30;99.70
23267;DHT22;11802;53.160;8.214;2022-07-12T11:33:17;33.10;98.40
23267;DHT22;11802;53.160;8.214;2022-07-12T11:35:46;32.90;98.00
23267;DHT22;11802;53.160;8.214;2022-07-12T11:38:12;33.30;97.90
23267;DHT22;11802;53.160;8.214;2022-07-12T11:40:37;33.10;97.50
23267;DHT22;11802;53.160;8.214;2022-07-12T11:43:03;32.90;97.00
23267;DHT22;11802;53.160;8.214;2022-07-12T11:45:32;33.30;97.40
23267;DHT22;11802;53.160;8.214;2022-07-12T11:48:00;33.20;97.20
23267;DHT22;11802;53.160;8.214;2022-07-12T11:50:28;32.00;97.40
23267;DHT22;11802;53.160;8.214;2022-07-12T11:52:55;32.50;97.00
23267;DHT22;11802;53.160;8.214;2022-07-12T11:55:20;32.50;97.50
23267;DHT22;11802;53.160;8.214;2022-07-12T11:57:46;32.40;96.90
23267;DHT22;11802;53.160;8.214;2022-07-12T12:00:20;32.10;97.70
23267;DHT22;11802;53.160;8.214;2022-07-12T12:02:51;32.40;97.90
23267;DHT22;11802;53.160;8.214;2022-07-12T12:05:17;32.60;97.70
23267;DHT22;11802;53.160;8.214;2022-07-12T12:07:43;32.70;98.80
23267;DHT22;11802;53.160;8.214;2022-07-12T12:10:12;32.80;98.10
23267;DHT22;11802;53.160;8.214;2022-07-12T12:12:50;32.70;97.90
23267;DHT22;11802;53.160;8.214;2022-07-12T12:17:54;33.10;96.60
23267;DHT22;11802;53.160;8.214;2022-07-12T12:20:39;33.00;95.10
23267;DHT22;11802;53.160;8.214;2022-07-12T12:23:18;33.00;95.90
23267;DHT22;11802;53.160;8.214;2022-07-12T12:25:45;32.70;95.30
23267;DHT22;11802;53.160;8.214;2022-07-12T12:28:14;32.50;95.90
23267;DHT22;11802;53.160;8.214;2022-07-12T12:31:09;32.20;96.00
23267;DHT22;11802;53.160;8.214;2022-07-12T12:33:36;32.60;99.20
23267;DHT22;11802;53.160;8.214;2022-07-12T12:38:40;33.00;96.70
23267;DHT22;11802;53.160;8.214;2022-07-12T12:41:05;32.90;96.30
23267;DHT22;11802;53.160;8.214;2022-07-12T12:43:31;32.60;96.90
23267;DHT22;11802;53.160;8.214;2022-07-12T12:45:58;32.70;96.60
23267;DHT22;11802;53.160;8.214;2022-07-12T12:48:24;32.60;97.10
23267;DHT22;11802;53.160;8.214;2022-07-12T12:50:52;33.10;95.70
23267;DHT22;11802;53.160;8.214;2022-07-12T12:53:22;32.90;94.50
23267;DHT22;11802;53.160;8.214;2022-07-12T12:55:53;32.90;96.10
23267;DHT22;11802;53.160;8.214;2022-07-12T12:58:21;33.20;96.60
23267;DHT22;11802;53.160;8.214;2022-07-12T13:00:48;33.20;95.20
23267;DHT22;11802;53.160;8.214;2022-07-12T13:03:16;32.80;96.30
23267;DHT22;11802;53.160;8.214;2022-07-12T13:05:43;33.20;95.50
23267;DHT22;11802;53.160;8.214;2022-07-12T13:08:09;33.10;95.90
23267;DHT22;11802;53.160;8.214;2022-07-12T13:10:36;33.00;96.40
23267;DHT22;11802;53.160;8.214;2022-07-12T13:13:03;32.30;96.10
23267;DHT22;11802;53.160;8.214;2022-07-12T13:15:30;32.00;96.90
23267;DHT22;11802;53.160;8.214;2022-07-12T13:17:56;32.50;95.60
23267;DHT22;11802;53.160;8.214;2022-07-12T13:20:22;32.20;95.20
23267;DHT22;11802;53.160;8.214;2022-07-12T13:22:48;32.40;95.20
23267;DHT22;11802;53.160;8.214;2022-07-12T13:25:15;32.10;95.60
23267;DHT22;11802;53.160;8.214;2022-07-12T13:27:42;32.00;96.30
23267;DHT22;11802;53.160;8.214;2022-07-12T13:30:09;30.40;97.80
23267;DHT22;11802;53.160;8.214;2022-07-12T13:32:36;30.90;97.70
23267;DHT22;11802;53.160;8.214;2022-07-12T13:35:03;31.00;97.60
23267;DHT22;11802;53.160;8.214;2022-07-12T13:37:30;31.00;98.00
23267;DHT22;11802;53.160;8.214;2022-07-12T13:39:55;31.00;98.40
23267;DHT22;11802;53.160;8.214;2022-07-12T13:42:40;30.90;98.90
23267;DHT22;11802;53.160;8.214;2022-07-12T13:45:07;30.80;98.80
23267;DHT22;11802;53.160;8.214;2022-07-12T13:47:35;30.80;99.90
23267;DHT22;11802;53.160;8.214;2022-07-12T13:50:01;31.00;99.30
23267;DHT22;11802;53.160;8.214;2022-07-12T13:52:27;31.00;98.60
23267;DHT22;11802;53.160;8.214;2022-07-12T13:54:52;30.90;98.40
23267;DHT22;11802;53.160;8.214;2022-07-12T13:57:18;30.90;98.90
23267;DHT22;11802;53.160;8.214;2022-07-12T13:59:43;30.60;99.00
23267;DHT22;11802;53.160;8.214;2022-07-12T14:02:09;30.60;99.60
23267;DHT22;11802;53.160;8.214;2022-07-12T14:04:34;30.60;99.90
23267;DHT22;11802;53.160;8.214;2022-07-12T14:07:00;30.60;99.60
23267;DHT22;11802;53.160;8.214;2022-07-12T14:09:26;30.60;99.90
23267;DHT22;11802;53.160;8.214;2022-07-12T14:11:52;30.60;99.90
23267;DHT22;11802;53.160;8.214;2022-07-12T14:14:18;30.70;99.90
23267;DHT22;11802;53.160;8.214;2022-07-12T14:17:03;30.60;99.90
23267;DHT22;11802;53.160;8.214;2022-07-12T14:19:28;30.50;99.90
23267;DHT22;11802;53.160;8.214;2022-07-12T14:21:54;30.40;99.90
23267;DHT22;11802;53.160;8.214;2022-07-12T14:24:19;30.10;99.90
23267;DHT22;11802;53.160;8.214;2022-07-12T14:26:45;30.10;99.90
23267;DHT22;11802;53.160;8.214;2022-07-12T14:29:10;30.10;99.90
23267;DHT22;11802;53.160;8.214;2022-07-12T14:31:36;30.20;99.90
23267;DHT22;11802;53.160;8.214;2022-07-12T14:34:02;30.10;99.90
23267;DHT22;11802;53.160;8.214;2022-07-12T14:36:27;30.30;99.90
23267;DHT22;11802;53.160;8.214;2022-07-12T14:38:53;30.40;99.90
23267;DHT22;11802;53.160;8.214;2022-07-12T14:41:18;30.80;99.90
23267;DHT22;11802;53.160;8.214;2022-07-12T14:43:44;30.80;99.90
23267;DHT22;11802;53.160;8.214;2022-07-12T14:46:10;30.90;99.90
23267;DHT22;11802;53.160;8.214;2022-07-12T14:48:35;30.60;99.90
23267;DHT22;11802;53.160;8.214;2022-07-12T14:51:00;30.50;99.90
23267;DHT22;11802;53.160;8.214;2022-07-12T14:53:26;30.60;99.90
23267;DHT22;11802;53.160;8.214;2022-07-12T14:55:52;30.50;99.90
23267;DHT22;11802;53.160;8.214;2022-07-12T14:58:17;30.50;99.90
23267;DHT22;11802;53.160;8.214;2022-07-12T15:00:43;30.40;99.90
23267;DHT22;11802;53.160;8.214;2022-07-12T15:03:09;30.40;99.90
23267;DHT22;11802;53.160;8.214;2022-07-12T15:05:35;30.20;99.90
23267;DHT22;11802;53.160;8.214;2022-07-12T15:08:00;30.10;98.90
23267;DHT22;11802;53.160;8.214;2022-07-12T15:10:26;30.10;99.50
23267;DHT22;11802;53.160;8.214;2022-07-12T15:12:52;30.10;99.60
23267;DHT22;11802;53.160;8.214;2022-07-12T15:15:17;30.00;99.30
23267;DHT22;11802;53.160;8.214;2022-07-12T15:17:43;30.00;99.90
23267;DHT22;11802;53.160;8.214;2022-07-12T15:20:09;29.90;99.90
23267;DHT22;11802;53.160;8.214;2022-07-12T15:22:34;29.80;99.40
23267;DHT22;11802;53.160;8.214;2022-07-12T15:25:00;29.90;99.80
23267;DHT22;11802;53.160;8.214;2022-07-12T15:27:25;30.00;99.90
23267;DHT22;11802;53.160;8.214;2022-07-12T15:32:21;30.10;99.90
23267;DHT22;11802;53.160;8.214;2022-07-12T15:34:47;30.10;99.70
23267;DHT22;11802;53.160;8.214;2022-07-12T15:37:13;30.20;99.20
23267;DHT22;11802;53.160;8.214;2022-07-12T15:39:39;30.10;99.50
23267;DHT22;11802;53.160;8.214;2022-07-12T15:42:04;30.10;99.70
23267;DHT22;11802;53.160;8.214;2022-07-12T15:44:30;30.10;99.50
23267;DHT22;11802;53.160;8.214;2022-07-12T15:46:56;30.00;99.90
23267;DHT22;11802;53.160;8.214;2022-07-12T15:49:21;30.10;99.80
23267;DHT22;11802;53.160;8.214;2022-07-12T15:51:47;30.20;99.90
23267;DHT22;11802;53.160;8.214;2022-07-12T15:54:31;30.00;99.90